createdAt,value
2019-05-25T00:01:45.928Z,203.07
2019-05-25T00:04:16.397Z,142.13
2019-05-25T00:06:42.474Z,158.22
2019-05-25T00:09:08.580Z,178.25
2019-05-25T00:11:34.660Z,157.12
2019-05-25T00:14:00.727Z,155.30
2019-05-25T00:16:26.825Z,138.82
2019-05-25T00:18:53.004Z,157.40
2019-05-25T00:21:19.174Z,137.45
2019-05-25T00:23:45.305Z,166.47
2019-05-25T00:26:11.397Z,217.75
2019-05-25T00:28:37.485Z,167.18
2019-05-25T00:31:03.591Z,136.65
2019-05-25T00:33:29.675Z,139.43
2019-05-25T00:35:55.820Z,136.40
2019-05-25T00:38:21.888Z,137.88
2019-05-25T00:40:47.981Z,136.80
2019-05-25T00:43:14.052Z,155.05
2019-05-25T00:45:40.152Z,153.47
2019-05-25T00:48:06.326Z,157.35
2019-05-25T00:50:32.413Z,136.25
2019-05-25T00:52:58.527Z,142.82
2019-05-25T00:55:24.680Z,138.75
2019-05-25T00:57:51.476Z,137.40
2019-05-25T01:00:18.245Z,130.95
2019-05-25T01:02:44.345Z,146.62
2019-05-25T01:05:10.738Z,146.07
2019-05-25T01:07:36.812Z,141.65
2019-05-25T01:10:05.204Z,141.37
2019-05-25T01:12:31.276Z,144.47
2019-05-25T01:14:57.364Z,133.22
2019-05-25T01:17:23.457Z,148.05
2019-05-25T01:19:49.945Z,144.00
2019-05-25T01:22:16.116Z,137.35
2019-05-25T01:24:44.759Z,134.95
2019-05-25T01:27:10.172Z,138.90
2019-05-25T01:29:36.245Z,131.65
2019-05-25T01:32:02.548Z,134.95
2019-05-25T01:34:28.620Z,140.65
2019-05-25T01:36:54.759Z,144.60
2019-05-25T01:39:20.851Z,135.68
2019-05-25T01:41:47.024Z,143.13
2019-05-25T01:44:13.412Z,136.47
2019-05-25T01:46:39.514Z,135.00
2019-05-25T01:49:05.684Z,102.20
2019-05-25T01:51:31.783Z,140.12
2019-05-25T01:53:57.980Z,141.70
2019-05-25T01:56:24.064Z,143.00
2019-05-25T01:58:50.143Z,137.22
2019-05-25T02:01:16.328Z,141.15
2019-05-25T02:03:42.404Z,149.53
2019-05-25T02:06:08.612Z,135.48
2019-05-25T02:08:34.781Z,132.52
2019-05-25T02:11:00.881Z,214.70
2019-05-25T02:13:26.945Z,140.92
2019-05-25T02:15:53.171Z,131.10
2019-05-25T02:18:19.307Z,137.22
2019-05-25T02:20:45.410Z,141.73
2019-05-25T02:23:11.476Z,162.92
2019-05-25T02:25:37.572Z,133.63
2019-05-25T02:28:03.704Z,146.35
2019-05-25T02:30:30.092Z,151.78
2019-05-25T02:32:56.502Z,140.05
2019-05-25T02:35:26.191Z,137.80
2019-05-25T02:37:52.672Z,135.52
2019-05-25T02:40:19.053Z,138.12
2019-05-25T02:42:45.144Z,142.80
2019-05-25T02:45:11.217Z,149.62
2019-05-25T02:47:37.312Z,134.32
2019-05-25T02:50:05.376Z,118.67
2019-05-25T02:52:31.462Z,140.30
2019-05-25T02:54:57.543Z,140.52
2019-05-25T02:57:23.634Z,142.55
2019-05-25T02:59:49.716Z,143.52
2019-05-25T03:02:16.032Z,138.65
2019-05-25T03:04:42.180Z,155.00
2019-05-25T03:07:09.670Z,132.12
2019-05-25T03:09:37.241Z,137.80
2019-05-25T03:12:03.439Z,130.82
2019-05-25T03:14:29.508Z,131.93
2019-05-25T03:16:55.598Z,133.35
2019-05-25T03:19:21.800Z,141.47
2019-05-25T03:21:47.968Z,129.15
2019-05-25T03:24:14.040Z,129.97
2019-05-25T03:26:40.226Z,137.03
2019-05-25T03:29:06.320Z,128.47
2019-05-25T03:31:32.412Z,137.85
2019-05-25T03:33:58.487Z,126.12
2019-05-25T03:36:24.585Z,132.70
2019-05-25T03:38:50.661Z,139.22
2019-05-25T03:41:16.728Z,180.00
2019-05-25T03:43:42.817Z,149.45
2019-05-25T03:46:08.909Z,132.35
2019-05-25T03:48:34.999Z,141.25
2019-05-25T03:51:01.063Z,136.12
2019-05-25T03:53:27.140Z,154.32
2019-05-25T03:56:05.320Z,146.40
2019-05-25T03:58:21.209Z,134.78
2019-05-25T04:00:47.263Z,296.52
2019-05-25T04:03:13.366Z,164.10
2019-05-25T04:05:39.515Z,160.67
2019-05-25T04:08:05.591Z,200.72
2019-05-25T04:10:31.659Z,200.10
2019-05-25T04:12:57.727Z,186.05
2019-05-25T04:15:23.859Z,298.35
2019-05-25T04:17:50.758Z,233.43
2019-05-25T04:20:17.043Z,220.60
2019-05-25T04:22:43.124Z,154.25
2019-05-25T04:25:09.296Z,206.97
2019-05-25T04:27:35.375Z,249.73
2019-05-25T04:30:02.855Z,173.30
2019-05-25T04:32:28.948Z,172.57
2019-05-25T04:34:55.011Z,218.63
2019-05-25T04:37:21.100Z,211.20
2019-05-25T04:39:47.160Z,232.22
2019-05-25T04:42:13.243Z,210.00
2019-05-25T04:44:39.314Z,197.98
2019-05-25T04:47:05.410Z,166.10
2019-05-25T04:49:31.480Z,193.13
2019-05-25T04:51:57.565Z,191.80
2019-05-25T04:54:23.655Z,184.48
2019-05-25T04:56:49.732Z,204.90
2019-05-25T04:59:15.809Z,212.80
2019-05-25T05:01:41.976Z,168.47
2019-05-25T05:04:08.058Z,220.57
2019-05-25T05:06:34.163Z,160.93
2019-05-25T05:09:00.243Z,165.80
2019-05-25T05:11:26.420Z,261.85
2019-05-25T05:13:52.504Z,239.17
2019-05-25T05:16:18.689Z,248.15
2019-05-25T05:18:44.869Z,303.75
2019-05-25T05:21:10.939Z,260.45
2019-05-25T05:23:37.005Z,275.30
2019-05-25T05:26:03.081Z,311.92
2019-05-25T05:28:29.259Z,224.35
2019-05-25T05:30:55.339Z,278.48
2019-05-25T05:33:21.753Z,215.25
2019-05-25T05:35:48.104Z,232.80
2019-05-25T05:38:14.500Z,239.68
2019-05-25T05:40:40.964Z,235.90
2019-05-25T05:43:08.751Z,221.97
2019-05-25T05:45:37.131Z,229.13
2019-05-25T05:48:03.225Z,288.85
2019-05-25T05:50:31.749Z,284.07
2019-05-25T05:53:01.217Z,352.22
2019-05-25T05:55:31.406Z,245.15
2019-05-25T05:57:58.316Z,240.45
2019-05-25T06:00:24.413Z,314.15
2019-05-25T06:02:50.590Z,253.25
2019-05-25T06:05:16.673Z,251.47
2019-05-25T06:07:42.856Z,254.65
2019-05-25T06:10:09.329Z,259.50
2019-05-25T06:12:35.432Z,242.13
2019-05-25T06:15:03.702Z,262.02
2019-05-25T06:17:30.161Z,281.02
2019-05-25T06:19:56.251Z,299.92
2019-05-25T06:22:22.308Z,287.42
2019-05-25T06:24:48.396Z,259.62
2019-05-25T06:27:26.449Z,265.10
2019-05-25T06:29:42.504Z,309.80
2019-05-25T06:32:08.620Z,285.02
2019-05-25T06:34:34.792Z,266.10
2019-05-25T06:37:00.988Z,291.32
2019-05-25T06:39:27.080Z,289.55
2019-05-25T06:41:53.161Z,325.43
2019-05-25T06:44:19.244Z,322.52
2019-05-25T06:46:45.337Z,331.43
2019-05-25T06:49:11.435Z,336.60
2019-05-25T06:51:37.504Z,317.68
2019-05-25T06:54:03.707Z,338.65
2019-05-25T06:56:29.869Z,291.68
2019-05-25T06:58:55.939Z,309.20
2019-05-25T07:01:22.031Z,337.32
2019-05-25T07:03:48.103Z,350.15
2019-05-25T07:06:14.208Z,324.80
2019-05-25T07:08:40.384Z,391.75
2019-05-25T07:11:06.475Z,361.87
2019-05-25T07:13:32.558Z,363.95
2019-05-25T07:15:58.648Z,387.05
2019-05-25T07:18:24.837Z,369.20
2019-05-25T07:20:51.945Z,373.45
2019-05-25T07:23:18.136Z,384.37
2019-05-25T07:25:44.304Z,386.92
2019-05-25T07:28:10.416Z,387.05
2019-05-25T07:30:36.684Z,471.98
2019-05-25T07:33:03.075Z,406.63
2019-05-25T07:35:29.572Z,447.15
2019-05-25T07:37:55.641Z,411.38
2019-05-25T07:40:21.728Z,495.73
2019-05-25T07:42:47.798Z,451.98
2019-05-25T07:45:14.196Z,428.12
2019-05-25T07:47:40.276Z,492.07
2019-05-25T07:50:08.055Z,521.77
2019-05-25T07:52:34.108Z,468.50
2019-05-25T07:55:00.170Z,480.75
2019-05-25T07:57:28.602Z,447.33
2019-05-25T07:59:54.206Z,440.85
2019-05-25T08:02:20.253Z,465.08
2019-05-25T08:04:46.325Z,419.40
2019-05-25T08:07:12.415Z,420.18
2019-05-25T08:09:38.596Z,494.82
2019-05-25T08:12:04.672Z,524.55
2019-05-25T08:14:30.767Z,506.17
2019-05-25T08:16:56.836Z,468.57
2019-05-25T08:19:22.932Z,481.15
2019-05-25T08:21:49.123Z,558.10
2019-05-25T08:24:15.205Z,526.77
2019-05-25T08:26:41.280Z,515.47
2019-05-25T08:29:07.384Z,478.12
2019-05-25T08:31:33.460Z,485.07
2019-05-25T08:33:59.543Z,511.40
2019-05-25T08:36:25.607Z,524.40
2019-05-25T08:38:54.690Z,533.85
2019-05-25T08:41:19.672Z,548.42
2019-05-25T08:43:45.745Z,556.45
2019-05-25T08:46:11.832Z,507.35
2019-05-25T08:48:37.990Z,504.02
2019-05-25T08:51:04.059Z,493.00
2019-05-25T08:53:40.513Z,532.42
2019-05-25T08:55:58.080Z,543.23
2019-05-25T08:58:24.152Z,553.90
2019-05-25T09:00:50.239Z,610.73
2019-05-25T09:03:16.312Z,591.17
2019-05-25T09:05:42.403Z,614.08
2019-05-25T09:08:08.484Z,631.58
2019-05-25T09:10:34.564Z,596.55
2019-05-25T09:13:00.657Z,584.58
2019-05-25T09:15:26.749Z,570.27
2019-05-25T09:17:52.821Z,580.77
2019-05-25T09:20:19.141Z,661.55
2019-05-25T09:22:45.205Z,686.65
2019-05-25T09:25:11.807Z,668.37
2019-05-25T09:27:37.877Z,684.98
2019-05-25T09:30:10.149Z,703.05
2019-05-25T09:32:34.000Z,717.72
2019-05-25T09:35:00.140Z,717.45
2019-05-25T09:37:26.236Z,698.67
2019-05-25T09:39:52.305Z,682.90
2019-05-25T09:42:18.675Z,676.37
2019-05-25T09:44:44.754Z,693.87
2019-05-25T09:47:10.856Z,688.03
2019-05-25T09:49:36.999Z,658.25
2019-05-25T09:52:03.498Z,655.00
2019-05-25T09:54:29.588Z,609.98
2019-05-25T09:56:55.688Z,642.92
2019-05-25T09:59:21.785Z,651.48
2019-05-25T10:01:48.064Z,650.80
2019-05-25T10:04:14.196Z,590.60
2019-05-25T10:06:40.270Z,629.30
2019-05-25T10:09:06.438Z,596.67
2019-05-25T10:11:32.523Z,632.30
2019-05-25T10:13:58.587Z,594.90
2019-05-25T10:16:24.801Z,648.70
2019-05-25T10:18:50.884Z,669.85
2019-05-25T10:21:16.956Z,663.90
2019-05-25T10:23:43.054Z,706.75
2019-05-25T10:26:09.129Z,672.85
2019-05-25T10:28:35.221Z,658.40
2019-05-25T10:31:01.298Z,624.60
2019-05-25T10:33:27.380Z,638.33
2019-05-25T10:35:53.473Z,597.27
2019-05-25T10:38:19.549Z,639.95
2019-05-25T10:40:46.222Z,550.00
2019-05-25T10:43:12.596Z,607.33
2019-05-25T10:45:38.680Z,561.20
2019-05-25T10:48:04.787Z,566.40
2019-05-25T10:50:30.885Z,625.38
2019-05-25T10:52:56.943Z,632.38
2019-05-25T10:55:23.044Z,661.38
2019-05-25T10:57:49.122Z,607.73
2019-05-25T11:00:16.373Z,641.23
2019-05-25T11:02:42.536Z,594.08
2019-05-25T11:05:09.872Z,595.80
2019-05-25T11:07:36.027Z,650.70
2019-05-25T11:10:06.884Z,633.07
2019-05-25T11:12:32.956Z,644.28
2019-05-25T11:14:59.453Z,625.35
2019-05-25T11:17:25.547Z,631.85
2019-05-25T11:19:51.619Z,552.90
2019-05-25T11:22:17.824Z,541.42
2019-05-25T11:24:43.978Z,574.17
2019-05-25T11:27:10.103Z,520.12
2019-05-25T11:29:36.163Z,520.42
2019-05-25T11:32:04.899Z,541.33
2019-05-25T11:34:31.997Z,501.90
2019-05-25T11:37:00.387Z,563.00
2019-05-25T11:39:27.976Z,550.08
2019-05-25T11:41:54.220Z,585.37
2019-05-25T11:44:24.982Z,536.70
2019-05-25T11:46:52.249Z,624.12
2019-05-25T11:49:22.449Z,612.98
2019-05-25T11:51:46.591Z,626.33
2019-05-25T11:54:12.676Z,606.15
2019-05-25T11:56:38.760Z,667.17
2019-05-25T11:59:05.307Z,679.72
2019-05-25T12:01:31.505Z,650.53
2019-05-25T12:03:57.690Z,678.40
2019-05-25T12:06:23.868Z,633.33
2019-05-25T12:08:50.160Z,656.87
2019-05-25T12:11:16.238Z,677.95
2019-05-25T12:13:42.318Z,632.75
2019-05-25T12:16:08.573Z,611.83
2019-05-25T12:18:34.774Z,628.20
2019-05-25T12:21:00.859Z,673.60
2019-05-25T12:23:26.948Z,681.47
2019-05-25T12:25:53.036Z,678.88
2019-05-25T12:28:19.211Z,633.33
2019-05-25T12:30:45.311Z,559.35
2019-05-25T12:33:11.396Z,551.82
2019-05-25T12:35:37.566Z,537.08
2019-05-25T12:38:03.742Z,518.90
2019-05-25T12:40:29.808Z,511.52
2019-05-25T12:42:55.902Z,523.08
2019-05-25T12:45:23.644Z,542.40
2019-05-25T12:47:51.028Z,551.27
2019-05-25T12:50:17.508Z,545.20
2019-05-25T12:52:44.370Z,567.33
2019-05-25T12:55:10.764Z,585.87
2019-05-25T12:57:36.848Z,563.17
2019-05-25T13:00:15.554Z,556.13
2019-05-25T13:02:33.920Z,567.12
2019-05-25T13:05:00.196Z,558.02
2019-05-25T13:07:31.201Z,605.40
2019-05-25T13:09:57.272Z,564.15
2019-05-25T13:12:23.360Z,540.55
2019-05-25T13:14:49.428Z,512.15
2019-05-25T13:17:15.520Z,559.85
2019-05-25T13:19:41.597Z,536.08
2019-05-25T13:22:07.677Z,515.40
2019-05-25T13:24:33.760Z,504.20
2019-05-25T13:26:59.931Z,498.78
2019-05-25T13:29:26.022Z,491.27
2019-05-25T13:31:52.102Z,510.15
2019-05-25T13:34:18.298Z,502.58
2019-05-25T13:36:44.365Z,501.93
2019-05-25T13:39:10.478Z,424.90
2019-05-25T13:41:36.673Z,458.72
2019-05-25T13:44:03.035Z,473.75
2019-05-25T13:46:29.136Z,406.00
2019-05-25T13:48:55.212Z,438.05
2019-05-25T13:51:21.292Z,420.50
2019-05-25T13:53:47.363Z,410.00
2019-05-25T13:56:13.456Z,429.68
2019-05-25T13:58:39.541Z,399.75
2019-05-25T14:01:05.603Z,369.73
2019-05-25T14:03:31.699Z,406.70
2019-05-25T14:05:57.762Z,408.32
2019-05-25T14:08:23.847Z,345.48
2019-05-25T14:10:49.908Z,374.98
2019-05-25T14:13:16.030Z,322.20
2019-05-25T14:15:42.191Z,338.65
2019-05-25T14:18:08.303Z,304.90
2019-05-25T14:20:34.372Z,313.95
2019-05-25T14:23:00.467Z,313.27
2019-05-25T14:25:26.541Z,308.23
2019-05-25T14:27:52.609Z,275.80
2019-05-25T14:30:19.004Z,276.80
2019-05-25T14:32:45.132Z,298.90
2019-05-25T14:35:11.598Z,290.82
2019-05-25T14:37:37.645Z,257.07
2019-05-25T14:40:05.812Z,324.25
2019-05-25T14:42:31.888Z,300.73
2019-05-25T14:44:57.968Z,312.45
2019-05-25T14:47:24.140Z,369.93
2019-05-25T14:49:50.224Z,297.10
2019-05-25T14:52:16.507Z,382.57
2019-05-25T14:54:42.573Z,339.60
2019-05-25T14:57:08.847Z,328.90
2019-05-25T14:59:34.915Z,267.30
2019-05-25T15:02:02.861Z,331.20
2019-05-25T15:04:29.063Z,320.97
2019-05-25T15:06:55.140Z,253.88
2019-05-25T15:09:21.230Z,278.95
2019-05-25T15:11:47.327Z,260.88
2019-05-25T15:14:13.563Z,276.07
2019-05-25T15:16:39.897Z,257.23
2019-05-25T15:19:06.177Z,312.75
2019-05-25T15:21:32.529Z,290.80
2019-05-25T15:23:58.669Z,353.58
2019-05-25T15:26:24.748Z,362.60
2019-05-25T15:28:50.831Z,305.52
2019-05-25T15:31:16.909Z,323.70
2019-05-25T15:33:42.991Z,301.85
2019-05-25T15:36:09.094Z,329.52
2019-05-25T15:38:35.201Z,318.42
2019-05-25T15:41:01.372Z,312.25
2019-05-25T15:43:27.474Z,304.13
2019-05-25T15:45:53.640Z,299.32
2019-05-25T15:48:19.733Z,298.27
2019-05-25T15:50:45.817Z,279.68
2019-05-25T15:53:11.901Z,348.02
2019-05-25T15:55:38.066Z,353.52
2019-05-25T15:58:04.280Z,314.77
2019-05-25T16:00:42.587Z,302.00
2019-05-25T16:03:08.693Z,277.68
2019-05-25T16:05:34.756Z,289.98
2019-05-25T16:08:01.751Z,259.18
2019-05-25T16:10:27.913Z,251.18
2019-05-25T16:12:54.009Z,237.70
2019-05-25T16:15:26.868Z,262.23
2019-05-25T16:17:52.948Z,278.42
2019-05-25T16:20:21.315Z,260.55
2019-05-25T16:22:47.424Z,247.80
2019-05-25T16:25:13.508Z,265.57
2019-05-25T16:27:39.586Z,258.93
2019-05-25T16:30:06.296Z,236.47
2019-05-25T16:32:32.356Z,263.95
2019-05-25T16:34:58.438Z,260.60
2019-05-25T16:37:24.572Z,246.13
2019-05-25T16:39:50.796Z,276.92
2019-05-25T16:42:16.868Z,253.70
2019-05-25T16:44:42.972Z,249.32
2019-05-25T16:47:09.050Z,252.25
2019-05-25T16:49:35.136Z,258.90
2019-05-25T16:52:01.320Z,237.02
2019-05-25T16:54:27.409Z,238.92
2019-05-25T16:56:53.475Z,257.70
2019-05-25T16:59:19.561Z,240.52
2019-05-25T17:01:48.502Z,218.17
2019-05-25T17:04:13.628Z,239.50
2019-05-25T17:06:39.688Z,216.70
2019-05-25T17:09:06.368Z,231.40
2019-05-25T17:11:32.434Z,245.10
2019-05-25T17:13:58.513Z,247.70
2019-05-25T17:16:24.686Z,223.40
2019-05-25T17:18:50.834Z,224.65
2019-05-25T17:21:17.044Z,247.90
2019-05-25T17:23:43.142Z,213.62
2019-05-25T17:26:09.272Z,220.00
2019-05-25T17:28:35.442Z,235.85
2019-05-25T17:31:01.519Z,226.47
2019-05-25T17:33:42.545Z,205.05
2019-05-25T17:35:55.573Z,210.93
2019-05-25T17:38:21.811Z,202.50
2019-05-25T17:40:48.071Z,205.32
2019-05-25T17:43:14.219Z,205.62
2019-05-25T17:45:40.507Z,187.62
2019-05-25T17:48:06.576Z,245.07
2019-05-25T17:50:32.738Z,211.82
2019-05-25T17:52:58.800Z,253.37
2019-05-25T17:55:24.881Z,200.65
2019-05-25T17:57:51.183Z,206.17
2019-05-25T18:00:38.584Z,208.02
2019-05-25T18:03:04.962Z,191.28
2019-05-25T18:05:31.359Z,208.57
2019-05-25T18:07:57.524Z,211.65
2019-05-25T18:10:23.615Z,217.10
2019-05-25T18:12:49.827Z,188.35
2019-05-25T18:15:16.206Z,200.25
2019-05-25T18:17:42.280Z,232.87
2019-05-25T18:20:09.187Z,205.98
2019-05-25T18:22:35.285Z,238.45
2019-05-25T18:25:01.388Z,200.13
2019-05-25T18:27:27.651Z,243.33
2019-05-25T18:29:55.420Z,227.80
2019-05-25T18:32:21.491Z,251.58
2019-05-25T18:34:47.581Z,263.15
2019-05-25T18:37:13.707Z,234.43
2019-05-25T18:39:39.844Z,203.75
2019-05-25T18:42:05.920Z,240.25
2019-05-25T18:44:32.008Z,235.48
2019-05-25T18:46:58.063Z,183.22
2019-05-25T18:49:24.141Z,205.05
2019-05-25T18:51:50.208Z,200.65
2019-05-25T18:54:16.297Z,189.20
2019-05-25T18:56:42.377Z,199.35
2019-05-25T18:59:08.574Z,230.77
2019-05-25T19:01:34.652Z,200.53
2019-05-25T19:04:00.792Z,217.90
2019-05-25T19:06:26.872Z,260.65
2019-05-25T19:08:52.948Z,195.28
2019-05-25T19:11:19.035Z,254.07
2019-05-25T19:13:45.113Z,191.37
2019-05-25T19:16:11.287Z,199.32
2019-05-25T19:18:37.383Z,183.68
2019-05-25T19:21:03.443Z,192.00
2019-05-25T19:23:29.563Z,178.97
2019-05-25T19:25:55.658Z,192.07
2019-05-25T19:28:21.742Z,163.18
2019-05-25T19:30:47.843Z,173.78
2019-05-25T19:33:13.913Z,173.07
2019-05-25T19:35:39.999Z,168.37
2019-05-25T19:38:06.085Z,176.55
2019-05-25T19:40:32.163Z,181.72
2019-05-25T19:42:58.231Z,183.25
2019-05-25T19:45:24.319Z,162.37
2019-05-25T19:47:50.404Z,217.32
2019-05-25T19:50:16.982Z,183.32
2019-05-25T19:52:43.089Z,182.80
2019-05-25T19:55:09.880Z,163.68
2019-05-25T19:57:35.968Z,189.70
2019-05-25T20:00:04.250Z,171.30
2019-05-25T20:02:30.319Z,166.55
2019-05-25T20:04:56.404Z,159.72
2019-05-25T20:07:24.515Z,182.05
2019-05-25T20:09:50.595Z,174.30
2019-05-25T20:12:17.021Z,171.57
2019-05-25T20:14:43.175Z,177.30
2019-05-25T20:17:09.292Z,176.55
2019-05-25T20:19:35.360Z,172.02
2019-05-25T20:22:01.443Z,175.57
2019-05-25T20:24:27.526Z,187.82
2019-05-25T20:26:53.626Z,172.98
2019-05-25T20:29:39.584Z,166.55
2019-05-25T20:32:05.656Z,187.40
2019-05-25T20:34:31.715Z,180.07
2019-05-25T20:36:57.799Z,183.27
2019-05-25T20:39:23.919Z,169.53
2019-05-25T20:41:50.075Z,179.90
2019-05-25T20:44:16.244Z,173.10
2019-05-25T20:46:42.308Z,167.40
2019-05-25T20:49:08.396Z,167.05
2019-05-25T20:51:34.471Z,176.30
2019-05-25T20:54:00.561Z,167.82
2019-05-25T20:56:26.616Z,212.53
2019-05-25T20:58:52.710Z,161.10
2019-05-25T21:01:18.877Z,164.45
2019-05-25T21:03:45.063Z,165.35
2019-05-25T21:06:11.128Z,167.53
2019-05-25T21:08:37.187Z,159.65
2019-05-25T21:11:03.290Z,165.80
2019-05-25T21:13:29.351Z,178.07
2019-05-25T21:15:55.543Z,157.40
2019-05-25T21:18:21.623Z,173.32
2019-05-25T21:20:47.687Z,168.87
2019-05-25T21:23:13.771Z,220.73
2019-05-25T21:25:39.832Z,196.20
2019-05-25T21:28:05.926Z,198.93
2019-05-25T21:30:32.001Z,164.93
2019-05-25T21:32:58.075Z,180.90
2019-05-25T21:35:24.144Z,155.30
2019-05-25T21:37:50.306Z,160.95
2019-05-25T21:40:19.376Z,162.88
2019-05-25T21:42:45.536Z,161.57
2019-05-25T21:45:12.510Z,158.37
2019-05-25T21:47:38.576Z,162.40
2019-05-25T21:50:05.733Z,203.88
2019-05-25T21:52:31.808Z,165.82
2019-05-25T21:54:57.872Z,166.85
2019-05-25T21:57:23.955Z,213.75
2019-05-25T21:59:50.032Z,160.90
2019-05-25T22:02:16.268Z,180.40
2019-05-25T22:04:42.332Z,187.43
2019-05-25T22:07:08.381Z,195.35
2019-05-25T22:09:34.447Z,192.68
2019-05-25T22:12:00.549Z,220.50
2019-05-25T22:14:26.616Z,211.92
2019-05-25T22:16:52.684Z,211.68
2019-05-25T22:19:18.754Z,220.12
2019-05-25T22:21:46.137Z,238.75
2019-05-25T22:24:12.521Z,204.97
2019-05-25T22:26:38.602Z,209.70
2019-05-25T22:29:04.751Z,237.53
2019-05-25T22:31:30.819Z,242.07
2019-05-25T22:33:59.266Z,203.88
2019-05-25T22:36:39.172Z,219.05
2019-05-25T22:38:52.879Z,210.93
2019-05-25T22:41:20.023Z,272.58
2019-05-25T22:43:46.458Z,203.22
2019-05-25T22:46:12.648Z,214.88
2019-05-25T22:48:38.744Z,227.05
2019-05-25T22:51:04.896Z,170.17
2019-05-25T22:53:30.960Z,170.32
2019-05-25T22:55:57.427Z,169.77
2019-05-25T22:58:23.615Z,168.17
2019-05-25T23:00:49.795Z,158.68
2019-05-25T23:03:15.896Z,164.35
2019-05-25T23:05:41.959Z,171.37
2019-05-25T23:08:08.047Z,169.72
2019-05-25T23:10:34.129Z,235.17
2019-05-25T23:13:00.225Z,233.28
2019-05-25T23:15:26.288Z,202.35
2019-05-25T23:17:52.363Z,215.80
2019-05-25T23:20:18.427Z,206.87
2019-05-25T23:22:44.519Z,194.62
2019-05-25T23:25:10.890Z,222.12
2019-05-25T23:27:37.055Z,228.15
2019-05-25T23:30:24.920Z,213.77
2019-05-25T23:32:51.128Z,185.80
2019-05-25T23:35:17.308Z,192.65
2019-05-25T23:37:43.396Z,158.50
2019-05-25T23:40:11.266Z,161.88
2019-05-25T23:42:37.345Z,156.72
2019-05-25T23:45:04.836Z,198.68
2019-05-25T23:47:31.022Z,152.30
2019-05-25T23:49:59.627Z,180.80
2019-05-25T23:52:25.084Z,149.97
2019-05-25T23:54:51.153Z,186.50
2019-05-25T23:57:17.339Z,190.40
2019-05-25T23:59:43.404Z,190.38
